sensor_id;sensor_type;location;lat;lon;timestamp;temperature;humidity
30053;DHT22;17074;52.478;13.534;2022-07-24T00:00:06;17.70;99.90
30053;DHT22;17074;52.478;13.534;2022-07-24T00:02:32;17.70;99.90
30053;DHT22;17074;52.478;13.534;2022-07-24T00:04:58;17.70;99.90
30053;DHT22;17074;52.478;13.534;2022-07-24T00:07:27;17.70;99.90
30053;DHT22;17074;52.478;13.534;2022-07-24T00:09:53;17.60;99.90
30053;DHT22;17074;52.478;13.534;2022-07-24T00:12:19;17.60;99.90
30053;DHT22;17074;52.478;13.534;2022-07-24T00:14:45;17.50;99.90
30053;DHT22;17074;52.478;13.534;2022-07-24T00:17:10;17.50;99.90
30053;DHT22;17074;52.478;13.534;2022-07-24T00:19:36;17.40;99.90
30053;DHT22;17074;52.478;13.534;2022-07-24T00:22:02;17.40;99.90
30053;DHT22;17074;52.478;13.534;2022-07-24T00:24:28;17.40;99.90
30053;DHT22;17074;52.478;13.534;2022-07-24T00:26:54;17.30;99.90
30053;DHT22;17074;52.478;13.534;2022-07-24T00:29:19;17.30;99.90
30053;DHT22;17074;52.478;13.534;2022-07-24T00:31:45;17.20;99.90
30053;DHT22;17074;52.478;13.534;2022-07-24T00:34:11;17.10;99.90
30053;DHT22;17074;52.478;13.534;2022-07-24T00:36:36;17.10;99.90
30053;DHT22;17074;52.478;13.534;2022-07-24T00:39:03;17.00;99.90
30053;DHT22;17074;52.478;13.534;2022-07-24T00:41:29;16.90;99.90
30053;DHT22;17074;52.478;13.534;2022-07-24T00:44:07;16.90;99.90
30053;DHT22;17074;52.478;13.534;2022-07-24T00:46:34;16.80;99.90
30053;DHT22;17074;52.478;13.534;2022-07-24T00:49:00;16.70;99.90
30053;DHT22;17074;52.478;13.534;2022-07-24T00:51:27;16.70;99.90
30053;DHT22;17074;52.478;13.534;2022-07-24T00:53:53;16.60;99.90
30053;DHT22;17074;52.478;13.534;2022-07-24T00:56:18;16.60;99.90
30053;DHT22;17074;52.478;13.534;2022-07-24T00:58:46;16.60;99.90
30053;DHT22;17074;52.478;13.534;2022-07-24T01:01:12;16.60;99.90
30053;DHT22;17074;52.478;13.534;2022-07-24T01:03:37;16.60;99.90
30053;DHT22;17074;52.478;13.534;2022-07-24T01:06:03;16.60;99.90
30053;DHT22;17074;52.478;13.534;2022-07-24T01:08:29;16.50;99.90
30053;DHT22;17074;52.478;13.534;2022-07-24T01:10:54;16.50;99.90
30053;DHT22;17074;52.478;13.534;2022-07-24T01:13:20;16.40;99.90
30053;DHT22;17074;52.478;13.534;2022-07-24T01:15:47;16.40;99.90
30053;DHT22;17074;52.478;13.534;2022-07-24T01:18:13;16.30;99.90
30053;DHT22;17074;52.478;13.534;2022-07-24T01:20:39;16.20;99.90
30053;DHT22;17074;52.478;13.534;2022-07-24T01:23:05;16.10;99.90
30053;DHT22;17074;52.478;13.534;2022-07-24T01:25:31;16.00;99.90
30053;DHT22;17074;52.478;13.534;2022-07-24T01:27:57;16.00;99.90
30053;DHT22;17074;52.478;13.534;2022-07-24T01:30:23;15.90;99.90
30053;DHT22;17074;52.478;13.534;2022-07-24T01:32:49;15.90;99.90
30053;DHT22;17074;52.478;13.534;2022-07-24T01:38:37;15.80;99.90
30053;DHT22;17074;52.478;13.534;2022-07-24T01:41:02;15.70;99.90
30053;DHT22;17074;52.478;13.534;2022-07-24T01:43:28;15.60;99.90
30053;DHT22;17074;52.478;13.534;2022-07-24T01:45:53;15.60;99.90
30053;DHT22;17074;52.478;13.534;2022-07-24T01:48:19;15.50;99.90
30053;DHT22;17074;52.478;13.534;2022-07-24T01:50:45;15.50;99.90
30053;DHT22;17074;52.478;13.534;2022-07-24T01:53:10;15.50;99.90
30053;DHT22;17074;52.478;13.534;2022-07-24T01:55:36;15.50;99.90
30053;DHT22;17074;52.478;13.534;2022-07-24T01:58:02;15.50;99.90
30053;DHT22;17074;52.478;13.534;2022-07-24T02:00:27;15.50;99.90
30053;DHT22;17074;52.478;13.534;2022-07-24T02:02:53;15.50;99.90
30053;DHT22;17074;52.478;13.534;2022-07-24T02:05:18;15.50;99.90
30053;DHT22;17074;52.478;13.534;2022-07-24T02:07:44;15.40;99.90
30053;DHT22;17074;52.478;13.534;2022-07-24T02:10:12;15.40;99.90
30053;DHT22;17074;52.478;13.534;2022-07-24T02:12:38;15.40;99.90
30053;DHT22;17074;52.478;13.534;2022-07-24T02:15:05;15.40;99.90
30053;DHT22;17074;52.478;13.534;2022-07-24T02:17:31;15.30;99.90
30053;DHT22;17074;52.478;13.534;2022-07-24T02:19:56;15.30;99.90
30053;DHT22;17074;52.478;13.534;2022-07-24T02:22:22;15.30;99.90
30053;DHT22;17074;52.478;13.534;2022-07-24T02:24:48;15.30;99.90
30053;DHT22;17074;52.478;13.534;2022-07-24T02:27:13;15.20;99.90
30053;DHT22;17074;52.478;13.534;2022-07-24T02:29:39;15.20;99.90
30053;DHT22;17074;52.478;13.534;2022-07-24T02:32:06;15.10;99.90
30053;DHT22;17074;52.478;13.534;2022-07-24T02:34:31;15.10;99.90
30053;DHT22;17074;52.478;13.534;2022-07-24T02:36:57;15.00;99.90
30053;DHT22;17074;52.478;13.534;2022-07-24T02:39:22;15.00;99.90
30053;DHT22;17074;52.478;13.534;2022-07-24T02:41:48;15.00;99.90
30053;DHT22;17074;52.478;13.534;2022-07-24T02:44:13;14.90;99.90
30053;DHT22;17074;52.478;13.534;2022-07-24T02:46:41;14.90;99.90
30053;DHT22;17074;52.478;13.534;2022-07-24T02:49:07;14.80;99.90
30053;DHT22;17074;52.478;13.534;2022-07-24T02:51:32;14.80;99.90
30053;DHT22;17074;52.478;13.534;2022-07-24T02:53:58;14.80;99.90
30053;DHT22;17074;52.478;13.534;2022-07-24T02:56:24;14.70;99.90
30053;DHT22;17074;52.478;13.534;2022-07-24T02:58:49;14.70;99.90
30053;DHT22;17074;52.478;13.534;2022-07-24T03:01:15;14.70;99.90
30053;DHT22;17074;52.478;13.534;2022-07-24T03:03:41;14.70;99.90
30053;DHT22;17074;52.478;13.534;2022-07-24T03:06:07;14.70;99.90
30053;DHT22;17074;52.478;13.534;2022-07-24T03:08:32;14.70;99.90
30053;DHT22;17074;52.478;13.534;2022-07-24T03:10:58;14.70;99.90
30053;DHT22;17074;52.478;13.534;2022-07-24T03:13:24;14.70;99.90
30053;DHT22;17074;52.478;13.534;2022-07-24T03:15:49;14.80;99.90
30053;DHT22;17074;52.478;13.534;2022-07-24T03:18:15;14.80;99.90
30053;DHT22;17074;52.478;13.534;2022-07-24T03:20:41;14.80;99.90
30053;DHT22;17074;52.478;13.534;2022-07-24T03:23:06;14.80;99.90
30053;DHT22;17074;52.478;13.534;2022-07-24T03:25:32;14.70;99.90
30053;DHT22;17074;52.478;13.534;2022-07-24T03:27:58;14.70;99.90
30053;DHT22;17074;52.478;13.534;2022-07-24T03:30:23;14.70;99.90
30053;DHT22;17074;52.478;13.534;2022-07-24T03:32:49;14.80;99.90
30053;DHT22;17074;52.478;13.534;2022-07-24T03:35:15;14.80;99.90
30053;DHT22;17074;52.478;13.534;2022-07-24T03:37:40;14.90;99.90
30053;DHT22;17074;52.478;13.534;2022-07-24T03:40:06;15.10;99.90
30053;DHT22;17074;52.478;13.534;2022-07-24T03:42:32;15.20;99.90
30053;DHT22;17074;52.478;13.534;2022-07-24T03:44:58;15.30;99.90
30053;DHT22;17074;52.478;13.534;2022-07-24T03:47:24;15.40;99.90
30053;DHT22;17074;52.478;13.534;2022-07-24T03:49:49;15.60;99.90
30053;DHT22;17074;52.478;13.534;2022-07-24T03:52:15;15.70;99.90
30053;DHT22;17074;52.478;13.534;2022-07-24T03:54:41;15.70;99.90
30053;DHT22;17074;52.478;13.534;2022-07-24T03:57:06;15.70;99.90
30053;DHT22;17074;52.478;13.534;2022-07-24T03:59:32;15.80;99.90
30053;DHT22;17074;52.478;13.534;2022-07-24T04:01:58;15.90;99.90
30053;DHT22;17074;52.478;13.534;2022-07-24T04:04:23;15.90;99.90
30053;DHT22;17074;52.478;13.534;2022-07-24T04:06:49;15.90;99.90
30053;DHT22;17074;52.478;13.534;2022-07-24T04:09:15;16.00;99.90
30053;DHT22;17074;52.478;13.534;2022-07-24T04:11:40;16.10;99.90
30053;DHT22;17074;52.478;13.534;2022-07-24T04:14:06;16.20;99.90
30053;DHT22;17074;52.478;13.534;2022-07-24T04:16:32;16.40;99.90
30053;DHT22;17074;52.478;13.534;2022-07-24T04:18:57;16.70;99.90
30053;DHT22;17074;52.478;13.534;2022-07-24T04:21:23;17.20;99.90
30053;DHT22;17074;52.478;13.534;2022-07-24T04:23:49;17.80;99.90
30053;DHT22;17074;52.478;13.534;2022-07-24T04:26:14;18.40;99.90
30053;DHT22;17074;52.478;13.534;2022-07-24T04:28:40;18.90;99.90
30053;DHT22;17074;52.478;13.534;2022-07-24T04:31:07;19.40;99.90
30053;DHT22;17074;52.478;13.534;2022-07-24T04:33:33;19.80;99.90
30053;DHT22;17074;52.478;13.534;2022-07-24T04:35:59;19.70;99.90
30053;DHT22;17074;52.478;13.534;2022-07-24T04:38:24;19.70;99.90
30053;DHT22;17074;52.478;13.534;2022-07-24T04:40:50;19.70;99.90
30053;DHT22;17074;52.478;13.534;2022-07-24T04:43:16;19.60;99.90
30053;DHT22;17074;52.478;13.534;2022-07-24T04:45:41;19.60;99.90
30053;DHT22;17074;52.478;13.534;2022-07-24T04:48:07;19.50;99.90
30053;DHT22;17074;52.478;13.534;2022-07-24T04:50:32;19.40;99.90
30053;DHT22;17074;52.478;13.534;2022-07-24T04:52:59;19.30;99.90
30053;DHT22;17074;52.478;13.534;2022-07-24T04:55:25;19.30;99.90
30053;DHT22;17074;52.478;13.534;2022-07-24T04:57:50;19.30;99.90
30053;DHT22;17074;52.478;13.534;2022-07-24T05:00:16;19.30;99.90
30053;DHT22;17074;52.478;13.534;2022-07-24T05:02:42;19.30;99.90
30053;DHT22;17074;52.478;13.534;2022-07-24T05:05:08;19.30;99.90
30053;DHT22;17074;52.478;13.534;2022-07-24T05:07:33;19.30;99.90
30053;DHT22;17074;52.478;13.534;2022-07-24T05:09:59;19.30;99.90
30053;DHT22;17074;52.478;13.534;2022-07-24T05:12:25;19.40;99.90
30053;DHT22;17074;52.478;13.534;2022-07-24T05:14:52;19.30;99.90
30053;DHT22;17074;52.478;13.534;2022-07-24T05:17:18;19.30;99.90
30053;DHT22;17074;52.478;13.534;2022-07-24T05:19:44;19.40;99.90
30053;DHT22;17074;52.478;13.534;2022-07-24T05:22:10;19.30;99.90
30053;DHT22;17074;52.478;13.534;2022-07-24T05:24:35;19.40;99.90
30053;DHT22;17074;52.478;13.534;2022-07-24T05:27:01;19.40;99.90
30053;DHT22;17074;52.478;13.534;2022-07-24T05:29:26;19.40;99.90
30053;DHT22;17074;52.478;13.534;2022-07-24T05:31:52;19.50;99.90
30053;DHT22;17074;52.478;13.534;2022-07-24T05:34:20;19.50;99.90
30053;DHT22;17074;52.478;13.534;2022-07-24T05:36:46;19.60;99.90
30053;DHT22;17074;52.478;13.534;2022-07-24T05:39:11;19.70;99.90
30053;DHT22;17074;52.478;13.534;2022-07-24T05:41:37;19.70;99.90
30053;DHT22;17074;52.478;13.534;2022-07-24T05:44:03;19.70;99.90
30053;DHT22;17074;52.478;13.534;2022-07-24T05:46:28;19.90;99.90
30053;DHT22;17074;52.478;13.534;2022-07-24T05:48:54;20.00;99.90
30053;DHT22;17074;52.478;13.534;2022-07-24T05:51:19;20.00;99.90
30053;DHT22;17074;52.478;13.534;2022-07-24T05:53:45;20.10;99.90
30053;DHT22;17074;52.478;13.534;2022-07-24T05:56:11;20.10;99.90
30053;DHT22;17074;52.478;13.534;2022-07-24T05:58:36;20.10;99.90
30053;DHT22;17074;52.478;13.534;2022-07-24T06:01:02;20.10;99.90
30053;DHT22;17074;52.478;13.534;2022-07-24T06:03:28;20.10;99.90
30053;DHT22;17074;52.478;13.534;2022-07-24T06:05:53;20.20;99.90
30053;DHT22;17074;52.478;13.534;2022-07-24T06:08:19;20.30;99.90
30053;DHT22;17074;52.478;13.534;2022-07-24T06:10:45;20.40;99.90
30053;DHT22;17074;52.478;13.534;2022-07-24T06:13:10;20.40;99.90
30053;DHT22;17074;52.478;13.534;2022-07-24T06:15:36;20.50;99.90
30053;DHT22;17074;52.478;13.534;2022-07-24T06:18:02;20.70;99.90
30053;DHT22;17074;52.478;13.534;2022-07-24T06:20:27;21.10;99.90
30053;DHT22;17074;52.478;13.534;2022-07-24T06:22:53;21.80;99.90
30053;DHT22;17074;52.478;13.534;2022-07-24T06:25:19;22.20;99.90
30053;DHT22;17074;52.478;13.534;2022-07-24T06:27:47;22.60;99.90
30053;DHT22;17074;52.478;13.534;2022-07-24T06:30:15;22.80;99.90
30053;DHT22;17074;52.478;13.534;2022-07-24T06:32:41;22.80;99.90
30053;DHT22;17074;52.478;13.534;2022-07-24T06:35:07;22.60;99.90
30053;DHT22;17074;52.478;13.534;2022-07-24T06:37:32;22.40;99.90
30053;DHT22;17074;52.478;13.534;2022-07-24T06:39:58;22.20;99.90
30053;DHT22;17074;52.478;13.534;2022-07-24T06:42:24;22.00;99.90
30053;DHT22;17074;52.478;13.534;2022-07-24T06:44:49;21.70;99.90
30053;DHT22;17074;52.478;13.534;2022-07-24T06:47:15;21.50;99.90
30053;DHT22;17074;52.478;13.534;2022-07-24T06:49:41;21.70;99.90
30053;DHT22;17074;52.478;13.534;2022-07-24T06:52:06;22.10;99.90
30053;DHT22;17074;52.478;13.534;2022-07-24T06:54:32;22.30;99.90
30053;DHT22;17074;52.478;13.534;2022-07-24T06:56:57;22.30;99.90
30053;DHT22;17074;52.478;13.534;2022-07-24T06:59:23;22.30;99.90
30053;DHT22;17074;52.478;13.534;2022-07-24T07:01:49;22.40;99.90
30053;DHT22;17074;52.478;13.534;2022-07-24T07:04:15;22.50;99.90
30053;DHT22;17074;52.478;13.534;2022-07-24T07:06:40;22.60;99.90
30053;DHT22;17074;52.478;13.534;2022-07-24T07:09:06;22.90;99.90
30053;DHT22;17074;52.478;13.534;2022-07-24T07:11:31;22.90;99.90
30053;DHT22;17074;52.478;13.534;2022-07-24T07:13:57;22.80;99.90
30053;DHT22;17074;52.478;13.534;2022-07-24T07:16:23;22.90;99.90
30053;DHT22;17074;52.478;13.534;2022-07-24T07:18:48;23.00;99.90
30053;DHT22;17074;52.478;13.534;2022-07-24T07:21:14;23.10;99.90
30053;DHT22;17074;52.478;13.534;2022-07-24T07:23:40;23.00;99.90
30053;DHT22;17074;52.478;13.534;2022-07-24T07:26:06;23.50;99.90
30053;DHT22;17074;52.478;13.534;2022-07-24T07:28:32;23.90;99.90
30053;DHT22;17074;52.478;13.534;2022-07-24T07:30:57;23.90;99.90
30053;DHT22;17074;52.478;13.534;2022-07-24T07:33:23;24.10;99.90
30053;DHT22;17074;52.478;13.534;2022-07-24T07:35:49;24.10;99.90
30053;DHT22;17074;52.478;13.534;2022-07-24T07:38:15;24.20;99.90
30053;DHT22;17074;52.478;13.534;2022-07-24T07:40:41;24.40;99.90
30053;DHT22;17074;52.478;13.534;2022-07-24T07:43:06;24.70;99.90
30053;DHT22;17074;52.478;13.534;2022-07-24T07:45:32;24.90;99.90
30053;DHT22;17074;52.478;13.534;2022-07-24T07:47:58;25.10;99.40
30053;DHT22;17074;52.478;13.534;2022-07-24T07:50:23;24.90;99.60
30053;DHT22;17074;52.478;13.534;2022-07-24T07:52:49;24.80;99.90
30053;DHT22;17074;52.478;13.534;2022-07-24T07:55:15;24.80;99.60
30053;DHT22;17074;52.478;13.534;2022-07-24T07:57:41;24.90;99.90
30053;DHT22;17074;52.478;13.534;2022-07-24T08:00:09;25.20;99.90
30053;DHT22;17074;52.478;13.534;2022-07-24T08:02:35;25.60;99.90
30053;DHT22;17074;52.478;13.534;2022-07-24T08:05:01;26.10;99.30
30053;DHT22;17074;52.478;13.534;2022-07-24T08:07:26;26.50;99.00
30053;DHT22;17074;52.478;13.534;2022-07-24T08:09:52;26.90;98.30
30053;DHT22;17074;52.478;13.534;2022-07-24T08:12:18;27.20;97.40
30053;DHT22;17074;52.478;13.534;2022-07-24T08:14:43;27.60;95.70
30053;DHT22;17074;52.478;13.534;2022-07-24T08:17:09;27.70;95.00
30053;DHT22;17074;52.478;13.534;2022-07-24T08:19:35;27.70;93.40
30053;DHT22;17074;52.478;13.534;2022-07-24T08:22:00;27.70;92.90
30053;DHT22;17074;52.478;13.534;2022-07-24T08:24:26;27.70;92.80
30053;DHT22;17074;52.478;13.534;2022-07-24T08:26:52;27.90;92.90
30053;DHT22;17074;52.478;13.534;2022-07-24T08:29:17;27.90;93.00
30053;DHT22;17074;52.478;13.534;2022-07-24T08:31:43;27.70;91.80
30053;DHT22;17074;52.478;13.534;2022-07-24T08:34:09;27.50;91.50
30053;DHT22;17074;52.478;13.534;2022-07-24T08:36:35;27.40;91.70
30053;DHT22;17074;52.478;13.534;2022-07-24T08:39:00;27.30;92.10
30053;DHT22;17074;52.478;13.534;2022-07-24T08:41:30;27.50;92.90
30053;DHT22;17074;52.478;13.534;2022-07-24T08:44:02;27.60;91.90
30053;DHT22;17074;52.478;13.534;2022-07-24T08:46:28;27.60;90.80
30053;DHT22;17074;52.478;13.534;2022-07-24T08:48:55;27.50;91.90
30053;DHT22;17074;52.478;13.534;2022-07-24T08:51:27;27.30;92.60
30053;DHT22;17074;52.478;13.534;2022-07-24T08:53:54;27.00;90.40
30053;DHT22;17074;52.478;13.534;2022-07-24T08:56:20;26.60;91.00
30053;DHT22;17074;52.478;13.534;2022-07-24T08:58:46;26.30;91.70
30053;DHT22;17074;52.478;13.534;2022-07-24T09:01:11;25.90;91.90
30053;DHT22;17074;52.478;13.534;2022-07-24T09:03:42;25.60;91.80
30053;DHT22;17074;52.478;13.534;2022-07-24T09:06:09;25.40;93.40
30053;DHT22;17074;52.478;13.534;2022-07-24T09:08:36;25.30;94.00
30053;DHT22;17074;52.478;13.534;2022-07-24T09:11:03;25.20;92.90
30053;DHT22;17074;52.478;13.534;2022-07-24T09:13:30;25.20;93.60
30053;DHT22;17074;52.478;13.534;2022-07-24T09:16:24;25.10;92.70
30053;DHT22;17074;52.478;13.534;2022-07-24T09:19:01;24.90;92.80
30053;DHT22;17074;52.478;13.534;2022-07-24T09:21:27;24.80;93.00
30053;DHT22;17074;52.478;13.534;2022-07-24T09:23:56;24.80;93.70
30053;DHT22;17074;52.478;13.534;2022-07-24T09:26:43;24.70;93.30
30053;DHT22;17074;52.478;13.534;2022-07-24T09:29:11;24.80;93.90
30053;DHT22;17074;52.478;13.534;2022-07-24T09:32:09;24.70;93.30
30053;DHT22;17074;52.478;13.534;2022-07-24T09:34:39;24.70;94.70
30053;DHT22;17074;52.478;13.534;2022-07-24T09:37:07;24.80;94.30
30053;DHT22;17074;52.478;13.534;2022-07-24T09:39:35;24.90;94.60
30053;DHT22;17074;52.478;13.534;2022-07-24T09:42:03;24.90;93.40
30053;DHT22;17074;52.478;13.534;2022-07-24T09:44:29;24.90;93.30
30053;DHT22;17074;52.478;13.534;2022-07-24T09:47:03;24.90;93.10
30053;DHT22;17074;52.478;13.534;2022-07-24T09:49:30;24.90;93.20
30053;DHT22;17074;52.478;13.534;2022-07-24T09:54:53;25.00;92.70
30053;DHT22;17074;52.478;13.534;2022-07-24T09:57:26;25.00;93.60
30053;DHT22;17074;52.478;13.534;2022-07-24T09:59:55;25.00;93.40
30053;DHT22;17074;52.478;13.534;2022-07-24T10:02:24;24.90;94.30
30053;DHT22;17074;52.478;13.534;2022-07-24T10:04:50;25.00;94.40
30053;DHT22;17074;52.478;13.534;2022-07-24T10:07:19;25.00;93.30
30053;DHT22;17074;52.478;13.534;2022-07-24T10:09:47;24.90;92.80
30053;DHT22;17074;52.478;13.534;2022-07-24T10:12:16;24.80;93.60
30053;DHT22;17074;52.478;13.534;2022-07-24T10:14:47;25.00;94.00
30053;DHT22;17074;52.478;13.534;2022-07-24T10:17:14;25.10;94.10
30053;DHT22;17074;52.478;13.534;2022-07-24T10:22:13;25.20;94.20
30053;DHT22;17074;52.478;13.534;2022-07-24T10:29:57;25.50;94.00
30053;DHT22;17074;52.478;13.534;2022-07-24T10:32:24;25.60;93.20
30053;DHT22;17074;52.478;13.534;2022-07-24T10:35:06;25.60;93.30
30053;DHT22;17074;52.478;13.534;2022-07-24T10:40:39;25.70;93.10
30053;DHT22;17074;52.478;13.534;2022-07-24T10:53:27;25.70;93.50
30053;DHT22;17074;52.478;13.534;2022-07-24T10:56:20;25.80;93.70
30053;DHT22;17074;52.478;13.534;2022-07-24T10:59:03;25.90;94.60
30053;DHT22;17074;52.478;13.534;2022-07-24T11:01:36;26.00;93.10
30053;DHT22;17074;52.478;13.534;2022-07-24T11:07:08;26.20;93.20
30053;DHT22;17074;52.478;13.534;2022-07-24T11:09:54;26.20;93.00
30053;DHT22;17074;52.478;13.534;2022-07-24T11:12:30;26.30;92.00
30053;DHT22;17074;52.478;13.534;2022-07-24T11:15:03;26.30;92.90
30053;DHT22;17074;52.478;13.534;2022-07-24T11:17:48;26.40;92.10
30053;DHT22;17074;52.478;13.534;2022-07-24T11:20:16;26.30;91.60
30053;DHT22;17074;52.478;13.534;2022-07-24T11:22:54;26.30;91.80
30053;DHT22;17074;52.478;13.534;2022-07-24T11:25:22;26.40;92.60
30053;DHT22;17074;52.478;13.534;2022-07-24T11:28:11;26.50;92.20
30053;DHT22;17074;52.478;13.534;2022-07-24T11:30:42;26.50;92.40
30053;DHT22;17074;52.478;13.534;2022-07-24T11:33:10;26.60;92.00
30053;DHT22;17074;52.478;13.534;2022-07-24T11:35:38;26.60;92.00
30053;DHT22;17074;52.478;13.534;2022-07-24T11:38:06;26.50;91.00
30053;DHT22;17074;52.478;13.534;2022-07-24T11:40:33;26.30;91.40
30053;DHT22;17074;52.478;13.534;2022-07-24T11:43:04;26.30;91.70
30053;DHT22;17074;52.478;13.534;2022-07-24T11:45:31;26.50;91.70
30053;DHT22;17074;52.478;13.534;2022-07-24T11:47:57;26.40;91.60
30053;DHT22;17074;52.478;13.534;2022-07-24T11:50:25;26.60;92.40
30053;DHT22;17074;52.478;13.534;2022-07-24T11:52:51;26.70;91.20
30053;DHT22;17074;52.478;13.534;2022-07-24T11:55:19;26.70;91.70
30053;DHT22;17074;52.478;13.534;2022-07-24T11:57:51;26.70;91.30
30053;DHT22;17074;52.478;13.534;2022-07-24T12:00:32;26.60;91.30
30053;DHT22;17074;52.478;13.534;2022-07-24T12:03:00;26.70;91.20
30053;DHT22;17074;52.478;13.534;2022-07-24T12:05:37;26.70;90.90
30053;DHT22;17074;52.478;13.534;2022-07-24T12:10:46;26.90;90.90
30053;DHT22;17074;52.478;13.534;2022-07-24T12:13:14;26.90;90.40
30053;DHT22;17074;52.478;13.534;2022-07-24T12:15:41;26.90;89.60
30053;DHT22;17074;52.478;13.534;2022-07-24T12:18:08;26.90;89.30
30053;DHT22;17074;52.478;13.534;2022-07-24T12:20:40;26.90;90.20
30053;DHT22;17074;52.478;13.534;2022-07-24T12:23:08;27.10;90.20
30053;DHT22;17074;52.478;13.534;2022-07-24T12:25:34;27.30;89.60
30053;DHT22;17074;52.478;13.534;2022-07-24T12:28:18;27.30;89.70
30053;DHT22;17074;52.478;13.534;2022-07-24T12:30:54;27.40;88.40
30053;DHT22;17074;52.478;13.534;2022-07-24T12:33:22;27.30;86.90
30053;DHT22;17074;52.478;13.534;2022-07-24T12:38:28;27.30;87.70
30053;DHT22;17074;52.478;13.534;2022-07-24T12:41:21;27.30;88.40
30053;DHT22;17074;52.478;13.534;2022-07-24T12:44:03;27.40;86.40
30053;DHT22;17074;52.478;13.534;2022-07-24T12:46:38;27.40;88.80
30053;DHT22;17074;52.478;13.534;2022-07-24T12:49:14;27.40;88.90
30053;DHT22;17074;52.478;13.534;2022-07-24T12:51:53;27.30;86.20
30053;DHT22;17074;52.478;13.534;2022-07-24T12:54:27;27.30;87.30
30053;DHT22;17074;52.478;13.534;2022-07-24T12:56:57;27.30;88.20
30053;DHT22;17074;52.478;13.534;2022-07-24T13:02:08;27.40;87.90
30053;DHT22;17074;52.478;13.534;2022-07-24T13:04:41;27.40;88.00
30053;DHT22;17074;52.478;13.534;2022-07-24T13:07:08;27.60;88.40
30053;DHT22;17074;52.478;13.534;2022-07-24T13:09:34;27.50;86.70
30053;DHT22;17074;52.478;13.534;2022-07-24T13:12:00;27.40;86.00
30053;DHT22;17074;52.478;13.534;2022-07-24T13:14:26;27.30;85.50
30053;DHT22;17074;52.478;13.534;2022-07-24T13:16:54;27.20;85.30
30053;DHT22;17074;52.478;13.534;2022-07-24T13:19:21;27.30;88.00
30053;DHT22;17074;52.478;13.534;2022-07-24T13:21:47;27.30;87.80
30053;DHT22;17074;52.478;13.534;2022-07-24T13:24:15;27.40;86.30
30053;DHT22;17074;52.478;13.534;2022-07-24T13:26:42;27.40;83.60
30053;DHT22;17074;52.478;13.534;2022-07-24T13:29:08;27.30;85.90
30053;DHT22;17074;52.478;13.534;2022-07-24T13:31:34;27.30;86.20
30053;DHT22;17074;52.478;13.534;2022-07-24T13:34:00;27.40;86.70
30053;DHT22;17074;52.478;13.534;2022-07-24T13:36:26;27.50;86.70
30053;DHT22;17074;52.478;13.534;2022-07-24T13:38:52;27.60;85.50
30053;DHT22;17074;52.478;13.534;2022-07-24T13:41:18;27.70;85.40
30053;DHT22;17074;52.478;13.534;2022-07-24T13:43:45;27.70;86.30
30053;DHT22;17074;52.478;13.534;2022-07-24T13:46:12;27.90;83.70
30053;DHT22;17074;52.478;13.534;2022-07-24T13:48:38;28.00;82.40
30053;DHT22;17074;52.478;13.534;2022-07-24T13:51:03;28.10;82.50
30053;DHT22;17074;52.478;13.534;2022-07-24T13:53:29;28.00;83.30
30053;DHT22;17074;52.478;13.534;2022-07-24T13:55:55;27.90;81.50
30053;DHT22;17074;52.478;13.534;2022-07-24T13:58:21;27.90;81.70
30053;DHT22;17074;52.478;13.534;2022-07-24T14:00:46;27.70;81.70
30053;DHT22;17074;52.478;13.534;2022-07-24T14:03:12;27.70;82.50
30053;DHT22;17074;52.478;13.534;2022-07-24T14:05:38;27.80;81.90
30053;DHT22;17074;52.478;13.534;2022-07-24T14:08:03;27.90;82.40
30053;DHT22;17074;52.478;13.534;2022-07-24T14:10:29;27.90;81.70
30053;DHT22;17074;52.478;13.534;2022-07-24T14:12:55;27.90;83.20
30053;DHT22;17074;52.478;13.534;2022-07-24T14:15:21;27.80;81.90
30053;DHT22;17074;52.478;13.534;2022-07-24T14:17:46;27.80;82.10
30053;DHT22;17074;52.478;13.534;2022-07-24T14:20:13;27.80;80.70
30053;DHT22;17074;52.478;13.534;2022-07-24T14:22:41;27.60;80.30
30053;DHT22;17074;52.478;13.534;2022-07-24T14:25:07;27.50;80.70
30053;DHT22;17074;52.478;13.534;2022-07-24T14:27:34;27.50;80.80
30053;DHT22;17074;52.478;13.534;2022-07-24T14:30:00;27.50;81.90
30053;DHT22;17074;52.478;13.534;2022-07-24T14:32:26;27.60;82.20
30053;DHT22;17074;52.478;13.534;2022-07-24T14:34:51;27.70;82.00
30053;DHT22;17074;52.478;13.534;2022-07-24T14:37:17;27.80;81.10
30053;DHT22;17074;52.478;13.534;2022-07-24T14:39:43;27.90;81.00
30053;DHT22;17074;52.478;13.534;2022-07-24T14:42:09;27.90;79.20
30053;DHT22;17074;52.478;13.534;2022-07-24T14:44:35;27.90;79.40
30053;DHT22;17074;52.478;13.534;2022-07-24T14:47:00;27.90;78.80
30053;DHT22;17074;52.478;13.534;2022-07-24T14:49:27;27.90;79.70
30053;DHT22;17074;52.478;13.534;2022-07-24T14:51:53;28.00;80.10
30053;DHT22;17074;52.478;13.534;2022-07-24T14:54:19;28.00;81.10
30053;DHT22;17074;52.478;13.534;2022-07-24T14:56:45;28.00;82.00
30053;DHT22;17074;52.478;13.534;2022-07-24T14:59:10;27.90;79.10
30053;DHT22;17074;52.478;13.534;2022-07-24T15:01:36;27.90;79.60
30053;DHT22;17074;52.478;13.534;2022-07-24T15:04:02;27.90;79.50
30053;DHT22;17074;52.478;13.534;2022-07-24T15:06:28;27.80;78.60
30053;DHT22;17074;52.478;13.534;2022-07-24T15:08:54;27.80;79.40
30053;DHT22;17074;52.478;13.534;2022-07-24T15:11:20;27.80;80.90
30053;DHT22;17074;52.478;13.534;2022-07-24T15:13:50;27.80;80.90
30053;DHT22;17074;52.478;13.534;2022-07-24T15:16:17;27.70;81.10
30053;DHT22;17074;52.478;13.534;2022-07-24T15:18:43;27.70;81.00
30053;DHT22;17074;52.478;13.534;2022-07-24T15:21:08;27.80;82.70
30053;DHT22;17074;52.478;13.534;2022-07-24T15:23:34;27.80;80.70
30053;DHT22;17074;52.478;13.534;2022-07-24T15:26:00;27.80;81.90
30053;DHT22;17074;52.478;13.534;2022-07-24T15:28:25;27.80;83.30
30053;DHT22;17074;52.478;13.534;2022-07-24T15:30:52;27.80;81.50
30053;DHT22;17074;52.478;13.534;2022-07-24T15:33:18;27.70;82.50
30053;DHT22;17074;52.478;13.534;2022-07-24T15:35:44;27.70;80.60
30053;DHT22;17074;52.478;13.534;2022-07-24T15:38:10;27.70;82.40
30053;DHT22;17074;52.478;13.534;2022-07-24T15:40:35;27.60;81.70
30053;DHT22;17074;52.478;13.534;2022-07-24T15:43:01;27.80;82.30
30053;DHT22;17074;52.478;13.534;2022-07-24T15:45:27;27.70;81.30
30053;DHT22;17074;52.478;13.534;2022-07-24T15:47:53;27.70;81.70
30053;DHT22;17074;52.478;13.534;2022-07-24T15:50:19;27.70;81.40
30053;DHT22;17074;52.478;13.534;2022-07-24T15:52:45;27.70;80.90